Time;durP1;ratioP1;P1;durP2;ratioP2;P2;SDS_P1;SDS_P2;PMS_P1;PMS_P2;Temp;Humidity;BMP_temperature;BMP_pressure;BME280_temperature;BME280_humidity;BME280_pressure;Samples;Min_cycle;Max_cycle;Signal;HPM_P1;HPM_P2
2021/05/12 00:01:55;;;;;;;8.30;2.38;;;;;;;7.73;76.31;99966.13;4928065;29;20037;-68
2021/05/12 00:04:21;;;;;;;8.90;2.38;;;;;;;7.60;76.56;99969.03;4934742;28;20024;-68
2021/05/12 00:06:46;;;;;;;6.55;2.10;;;;;;;7.43;75.95;99957.25;4945871;28;20034;-68
2021/05/12 00:09:12;;;;;;;5.47;2.17;;;;;;;7.33;77.34;99960.09;4936676;28;20032;-68
2021/05/12 00:11:38;;;;;;;9.82;2.58;;;;;;;7.23;78.62;99964.63;4932899;28;20031;-69
2021/05/12 00:14:03;;;;;;;7.65;2.17;;;;;;;7.41;78.13;99959.06;4931193;28;20055;-68
2021/05/12 00:16:29;;;;;;;7.82;2.50;;;;;;;7.47;79.97;99969.31;4941797;28;20027;-68
2021/05/12 00:18:54;;;;;;;7.70;2.50;;;;;;;7.53;78.58;99966.56;4939916;28;20488;-69
2021/05/12 00:21:29;;;;;;;5.43;1.98;;;;;;;7.45;77.36;99955.50;4935166;28;20094;-68
2021/05/12 00:23:59;;;;;;;8.15;2.35;;;;;;;7.16;76.81;99960.47;4943864;28;20387;-68
2021/05/12 00:26:26;;;;;;;8.27;2.50;;;;;;;7.05;77.80;99959.81;4934043;28;20889;-68
2021/05/12 00:28:51;;;;;;;6.78;2.53;;;;;;;6.90;77.90;99951.47;4934355;28;20507;-68
2021/05/12 00:31:17;;;;;;;8.38;2.38;;;;;;;6.80;77.52;99960.31;4928274;29;20023;-68
2021/05/12 00:33:43;;;;;;;8.85;2.88;;;;;;;6.73;78.34;99950.91;4925495;29;20039;-68
2021/05/12 00:36:08;;;;;;;8.60;2.72;;;;;;;6.69;78.21;99951.84;4929917;28;20023;-68
2021/05/12 00:38:34;;;;;;;10.00;3.15;;;;;;;6.62;78.75;99947.66;4935862;28;20035;-68
2021/05/12 00:40:59;;;;;;;7.32;2.60;;;;;;;6.61;77.87;99948.56;4949115;28;20043;-68
2021/05/12 00:43:25;;;;;;;8.88;2.58;;;;;;;6.52;78.61;99948.72;4930995;28;20027;-68
2021/05/12 00:45:50;;;;;;;12.35;3.00;;;;;;;6.61;81.34;99948.56;4923543;29;20027;-68
2021/05/12 00:48:16;;;;;;;7.43;2.83;;;;;;;6.69;80.51;99941.47;4931220;28;20470;-68
2021/05/12 00:50:41;;;;;;;8.32;2.65;;;;;;;6.79;79.76;99948.19;4937976;28;20528;-68
2021/05/12 00:53:07;;;;;;;9.88;3.15;;;;;;;6.68;79.17;99945.81;4944301;28;20030;-67
2021/05/12 00:55:34;;;;;;;6.55;2.65;;;;;;;6.73;77.88;99941.38;4936669;28;20093;-68
2021/05/12 00:58:00;;;;;;;8.63;2.80;;;;;;;6.57;79.06;99944.31;4934821;29;20036;-68
2021/05/12 01:00:28;;;;;;;13.52;3.50;;;;;;;6.76;79.50;99943.06;4933613;29;20586;-68
2021/05/12 01:02:53;;;;;;;7.28;2.67;;;;;;;6.60;77.96;99952.03;4927714;28;20074;-68
2021/05/12 01:05:35;;;;;;;7.32;2.63;;;;;;;6.57;77.81;99947.75;4944418;28;20054;-68
2021/05/12 01:08:04;;;;;;;9.70;3.15;;;;;;;6.47;77.88;99947.06;4931141;28;20749;-68
2021/05/12 01:10:31;;;;;;;10.45;3.15;;;;;;;6.43;76.95;99934.16;4936995;28;20035;-68
2021/05/12 01:12:57;;;;;;;7.57;2.65;;;;;;;6.30;77.75;99938.72;4953090;28;20035;-67
2021/05/12 01:15:22;;;;;;;7.82;2.42;;;;;;;6.09;77.86;99939.09;4947241;28;20837;-68
2021/05/12 01:17:48;;;;;;;10.20;2.90;;;;;;;6.03;77.77;99934.00;4949328;28;20043;-68
2021/05/12 01:20:14;;;;;;;5.88;2.55;;;;;;;5.96;77.93;99934.09;4945486;28;20096;-68
2021/05/12 01:22:40;;;;;;;8.88;2.60;;;;;;;5.95;78.93;99927.22;4939779;28;20039;-68
2021/05/12 01:25:07;;;;;;;7.32;2.70;;;;;;;5.86;78.71;99936.84;4928716;28;20055;-68
2021/05/12 01:27:33;;;;;;;7.85;2.00;;;;;;;5.80;78.74;99927.44;4945115;28;20026;-68
2021/05/12 01:30:00;;;;;;;8.20;2.92;;;;;;;5.73;79.00;99941.38;4933851;28;20043;-68
2021/05/12 01:32:33;;;;;;;9.93;2.45;;;;;;;5.69;79.43;99934.53;4937630;28;20027;-68
2021/05/12 01:35:08;;;;;;;6.43;2.53;;;;;;;5.67;78.75;99933.66;4934947;29;20395;-68
2021/05/12 01:37:35;;;;;;;7.95;2.58;;;;;;;5.64;79.24;99944.09;4946110;28;20458;-68
2021/05/12 01:40:04;;;;;;;16.47;3.37;;;;;;;5.66;79.83;99938.00;4933015;28;20517;-68
2021/05/12 01:42:30;;;;;;;11.50;2.90;;;;;;;5.63;78.86;99934.63;4931092;28;20292;-67
2021/05/12 01:45:08;;;;;;;11.18;3.10;;;;;;;5.59;78.40;99938.97;4944615;28;20023;-68
2021/05/12 01:47:34;;;;;;;7.85;3.00;;;;;;;5.50;81.18;99936.50;4941887;28;20440;-67
2021/05/12 01:50:08;;;;;;;7.70;3.00;;;;;;;5.36;80.96;99944.47;4932803;28;20027;-68
2021/05/12 01:52:51;;;;;;;7.97;2.92;;;;;;;5.41;81.59;99927.13;4942370;28;20027;-68
2021/05/12 01:55:17;;;;;;;11.45;3.15;;;;;;;5.64;81.47;99928.56;4936133;28;20038;-68
2021/05/12 01:57:43;;;;;;;7.57;2.83;;;;;;;5.69;80.63;99934.53;4928596;28;20027;-68
2021/05/12 02:00:35;;;;;;;9.10;2.65;;;;;;;5.83;80.41;99937.75;4939291;28;20117;-68
2021/05/12 02:03:04;;;;;;;5.70;2.67;;;;;;;5.75;78.82;99929.25;4942625;28;20114;-68
2021/05/12 02:05:30;;;;;;;9.77;3.10;;;;;;;5.65;80.00;99938.88;4941583;28;20027;-68
2021/05/12 02:07:58;;;;;;;6.15;2.78;;;;;;;5.62;79.77;99933.72;4936668;28;20089;-68
2021/05/12 02:10:24;;;;;;;8.23;2.63;;;;;;;5.44;79.61;99939.19;4925133;28;20031;-68
2021/05/12 02:12:50;;;;;;;8.82;2.65;;;;;;;5.18;79.42;99936.97;4942993;28;20039;-68
2021/05/12 02:15:16;;;;;;;5.07;2.30;;;;;;;5.10;80.01;99931.88;4943176;28;20046;-68
2021/05/12 02:17:41;;;;;;;10.77;2.85;;;;;;;5.18;80.60;99936.97;4933687;28;20579;-68
2021/05/12 02:20:13;;;;;;;6.18;2.83;;;;;;;5.13;79.73;99938.75;4938518;28;20046;-68
2021/05/12 02:22:39;;;;;;;7.65;2.92;;;;;;;5.08;79.48;99936.22;4955080;28;20501;-68
2021/05/12 02:25:06;;;;;;;5.28;2.30;;;;;;;5.05;78.62;99940.56;4958684;28;20058;-68
2021/05/12 02:27:31;;;;;;;5.50;2.40;;;;;;;4.97;79.12;99932.03;4947491;28;20495;-68
2021/05/12 02:30:01;;;;;;;9.48;2.83;;;;;;;4.98;79.27;99936.38;4953300;28;20027;-68
2021/05/12 02:32:29;;;;;;;8.20;2.78;;;;;;;5.03;78.91;99931.97;4942380;28;20133;-68
2021/05/12 02:34:56;;;;;;;6.57;2.65;;;;;;;5.10;78.91;99931.03;4931776;28;20033;-68
2021/05/12 02:37:22;;;;;;;9.55;3.33;;;;;;;5.05;79.15;99936.25;4941252;28;20490;-68
2021/05/12 02:39:47;;;;;;;8.35;3.10;;;;;;;5.02;79.33;99932.84;4953829;28;20105;-67
2021/05/12 02:42:13;;;;;;;7.97;2.70;;;;;;;5.04;79.56;99934.53;4942341;28;20471;-68
2021/05/12 02:44:38;;;;;;;9.05;3.20;;;;;;;4.94;79.67;99923.44;4941265;28;20059;-68
2021/05/12 02:47:04;;;;;;;11.20;3.30;;;;;;;5.05;80.83;99930.22;4954152;28;20023;-67
2021/05/12 02:49:29;;;;;;;9.20;2.47;;;;;;;5.10;81.41;99928.44;4929832;28;20024;-68
2021/05/12 02:51:55;;;;;;;7.53;2.70;;;;;;;5.24;82.90;99928.25;4943178;28;20049;-68
2021/05/12 02:54:21;;;;;;;11.48;3.90;;;;;;;5.13;82.15;99928.41;4937419;28;20109;-68
2021/05/12 02:56:46;;;;;;;7.95;3.40;;;;;;;5.14;83.63;99930.09;4953946;28;20031;-68
2021/05/12 02:59:12;;;;;;;8.55;3.42;;;;;;;5.21;82.42;99922.22;4942136;28;20031;-68
2021/05/12 03:01:37;;;;;;;8.13;2.90;;;;;;;5.34;81.08;99928.13;4944156;28;20134;-68
2021/05/12 03:04:03;;;;;;;9.23;2.80;;;;;;;5.21;80.44;99923.97;4930959;28;20035;-68
2021/05/12 03:06:29;;;;;;;7.85;2.75;;;;;;;5.09;79.99;99912.06;4939600;28;20024;-68
2021/05/12 03:08:54;;;;;;;8.07;2.47;;;;;;;5.00;78.45;99919.06;4934013;28;20032;-68
2021/05/12 03:11:20;;;;;;;7.75;2.63;;;;;;;4.84;78.51;99921.00;4921682;28;20055;-68
2021/05/12 03:13:45;;;;;;;5.90;2.30;;;;;;;4.78;79.63;99921.94;4945070;28;20019;-68
2021/05/12 03:16:11;;;;;;;6.35;2.60;;;;;;;4.72;79.41;99916.84;4950964;28;20038;-69
2021/05/12 03:18:36;;;;;;;6.13;2.63;;;;;;;4.66;78.67;99917.75;4931539;28;20027;-68
2021/05/12 03:21:03;;;;;;;7.32;3.03;;;;;;;4.56;78.18;99920.44;4934398;29;20038;-68
2021/05/12 03:23:28;;;;;;;9.93;3.25;;;;;;;4.45;80.71;99919.69;4928891;28;20032;-68
2021/05/12 03:25:55;;;;;;;6.18;2.40;;;;;;;4.36;80.25;99918.94;4935362;29;20039;-68
2021/05/12 03:28:21;;;;;;;8.77;3.03;;;;;;;4.26;82.57;99916.44;4946726;28;20034;-67
2021/05/12 03:30:46;;;;;;;5.38;2.50;;;;;;;4.27;82.51;99913.00;4937959;28;20070;-68
2021/05/12 03:33:12;;;;;;;5.72;2.35;;;;;;;4.27;81.23;99913.84;4949401;28;20042;-68
2021/05/12 03:35:39;;;;;;;5.30;2.38;;;;;;;4.35;80.28;99901.69;4951732;28;20054;-68
2021/05/12 03:38:05;;;;;;;6.18;2.50;;;;;;;4.34;80.12;99915.50;4940523;28;20026;-67
2021/05/12 03:40:31;;;;;;;4.93;2.40;;;;;;;4.33;80.76;99918.09;4941566;28;20027;-68
2021/05/12 03:42:58;;;;;;;5.38;2.30;;;;;;;4.55;81.07;99918.72;4932358;28;20038;-68
2021/05/12 03:45:24;;;;;;;4.72;2.40;;;;;;;4.72;80.60;99919.41;4928970;28;20027;-68
2021/05/12 03:47:50;;;;;;;5.13;2.42;;;;;;;4.76;80.25;99918.47;4954644;28;20076;-67
2021/05/12 03:50:17;;;;;;;6.47;2.50;;;;;;;4.77;79.78;99915.03;4958761;28;20059;-69
2021/05/12 03:52:42;;;;;;;7.97;2.70;;;;;;;4.66;79.32;99917.75;4939762;28;20023;-68
2021/05/12 03:55:09;;;;;;;8.20;2.45;;;;;;;4.56;79.62;99910.09;4954766;28;20038;-67
2021/05/12 03:57:34;;;;;;;7.80;3.22;;;;;;;4.56;79.85;99904.91;4951370;28;20039;-68
2021/05/12 04:00:00;;;;;;;6.30;3.00;;;;;;;4.61;79.73;99916.97;4935137;28;20074;-68
2021/05/12 04:02:25;;;;;;;5.97;2.65;;;;;;;4.40;78.04;99910.25;4939283;28;20048;-68
2021/05/12 04:04:51;;;;;;;8.45;2.85;;;;;;;4.24;79.76;99915.59;4948051;28;20110;-68
2021/05/12 04:07:16;;;;;;;8.10;2.83;;;;;;;4.17;80.49;99912.22;4957884;28;20031;-68
2021/05/12 04:09:42;;;;;;;6.35;2.75;;;;;;;4.20;79.99;99901.84;4938837;28;20172;-68
2021/05/12 04:12:08;;;;;;;9.63;2.95;;;;;;;4.16;80.53;99916.53;4942466;28;20053;-67
2021/05/12 04:14:33;;;;;;;7.20;2.75;;;;;;;4.14;79.71;99914.81;4951552;28;20047;-68
2021/05/12 04:16:59;;;;;;;7.65;2.60;;;;;;;4.14;80.39;99907.06;4942697;28;20031;-68
2021/05/12 04:19:24;;;;;;;6.85;2.80;;;;;;;3.97;81.32;99906.38;4938998;28;20407;-68
2021/05/12 04:21:49;;;;;;;5.38;2.33;;;;;;;3.83;81.06;99917.69;4930238;28;20518;-68
2021/05/12 04:24:15;;;;;;;5.65;2.05;;;;;;;3.67;81.54;99910.91;4934556;28;20498;-68
2021/05/12 04:26:42;;;;;;;7.43;2.40;;;;;;;3.62;82.11;99917.84;4919859;29;20059;-68
2021/05/12 04:29:08;;;;;;;5.38;2.50;;;;;;;3.56;82.20;99917.88;4947867;28;20858;-69
2021/05/12 04:31:34;;;;;;;8.68;2.80;;;;;;;3.59;82.82;99918.69;4944636;28;20030;-68
2021/05/12 04:34:00;;;;;;;5.68;2.72;;;;;;;3.64;82.14;99916.09;4937906;28;20122;-68
2021/05/12 04:36:25;;;;;;;7.30;2.90;;;;;;;3.70;82.07;99917.78;4940717;28;20035;-67
2021/05/12 04:38:51;;;;;;;8.55;3.47;;;;;;;3.75;83.66;99919.47;4947816;28;20792;-68
2021/05/12 04:41:18;;;;;;;7.15;2.95;;;;;;;3.92;82.38;99921.06;4941465;28;20149;-68
2021/05/12 04:43:44;;;;;;;8.43;3.00;;;;;;;3.96;81.89;99923.63;4936426;28;20652;-67
2021/05/12 04:46:10;;;;;;;9.52;3.13;;;;;;;4.01;82.16;99918.41;4936696;29;20053;-68
2021/05/12 04:48:35;;;;;;;8.05;2.88;;;;;;;4.02;82.25;99915.81;4941681;29;20026;-68
2021/05/12 04:51:01;;;;;;;6.50;2.97;;;;;;;4.18;81.21;99921.69;4955422;28;20055;-68
2021/05/12 04:53:27;;;;;;;10.27;3.58;;;;;;;4.12;81.20;99919.16;4949319;28;20113;-68
2021/05/12 04:55:52;;;;;;;8.75;3.40;;;;;;;4.11;80.69;99931.22;4943324;28;20020;-67
2021/05/12 04:58:19;;;;;;;8.73;3.55;;;;;;;3.91;80.95;99925.38;4934542;28;20047;-68
2021/05/12 05:00:45;;;;;;;8.63;3.60;;;;;;;4.04;80.67;99936.44;4953793;28;20027;-68
2021/05/12 05:03:10;;;;;;;8.68;3.63;;;;;;;4.04;79.65;99928.69;4942135;28;20074;-68
2021/05/12 05:05:36;;;;;;;7.63;3.58;;;;;;;4.04;79.77;99949.38;4932299;28;20031;-68
2021/05/12 05:08:02;;;;;;;9.95;3.95;;;;;;;4.08;80.18;99951.06;4956880;28;20542;-68
2021/05/12 05:10:27;;;;;;;8.13;3.53;;;;;;;4.11;79.89;99953.63;4936192;28;20036;-68
2021/05/12 05:12:53;;;;;;;7.65;3.60;;;;;;;4.11;80.78;99954.50;4934817;28;20030;-68
2021/05/12 05:15:18;;;;;;;10.88;4.40;;;;;;;4.24;82.30;99956.94;4941700;28;20579;-67
2021/05/12 05:17:44;;;;;;;10.60;4.85;;;;;;;4.49;82.52;99955.00;4941549;28;20027;-68
2021/05/12 05:20:14;;;;;;;10.00;4.13;;;;;;;4.62;83.55;99951.41;4930316;29;20027;-68
2021/05/12 05:22:39;;;;;;;10.05;3.65;;;;;;;4.86;83.17;99956.31;4925775;28;20023;-68
2021/05/12 05:25:06;;;;;;;9.55;3.85;;;;;;;4.84;83.09;99952.03;4939851;28;20894;-68
2021/05/12 05:27:32;;;;;;;17.42;3.90;;;;;;;5.07;83.28;99954.34;4936249;29;20094;-67
2021/05/12 05:29:58;;;;;;;7.93;3.53;;;;;;;5.06;83.52;99953.47;4942609;28;20035;-70
2021/05/12 05:32:23;;;;;;;9.23;3.47;;;;;;;5.26;82.22;99955.81;4940768;28;20031;-68
2021/05/12 05:34:49;;;;;;;8.80;3.70;;;;;;;5.28;81.61;99959.25;4935153;28;20038;-68
2021/05/12 05:37:15;;;;;;;12.60;4.10;;;;;;;5.37;83.08;99959.16;4932167;28;20542;-68
2021/05/12 05:39:40;;;;;;;12.38;4.50;;;;;;;5.31;83.81;99948.00;4932800;29;20057;-70
2021/05/12 05:42:08;;;;;;;10.85;4.32;;;;;;;5.39;83.88;99956.53;4938199;28;20498;-68
2021/05/12 05:44:34;;;;;;;11.77;4.55;;;;;;;5.55;83.92;99957.16;4933061;28;20064;-68
2021/05/12 05:47:00;;;;;;;16.27;4.53;;;;;;;5.61;84.61;99957.06;4947714;28;20031;-68
2021/05/12 05:49:26;;;;;;;10.32;3.67;;;;;;;5.64;84.50;99960.47;4941945;28;20019;-68
2021/05/12 05:51:52;;;;;;;11.25;4.13;;;;;;;5.60;85.18;99968.31;4942626;28;20437;-68
2021/05/12 05:54:19;;;;;;;13.88;5.03;;;;;;;5.73;86.03;99968.13;4949548;28;20023;-68
2021/05/12 05:56:45;;;;;;;12.85;4.00;;;;;;;5.87;85.70;99964.47;4957135;28;20031;-67
2021/05/12 05:59:10;;;;;;;9.25;4.20;;;;;;;5.81;85.82;99962.81;4931846;28;20039;-68
2021/05/12 06:01:36;;;;;;;10.85;4.47;;;;;;;5.85;85.87;99972.25;4927055;29;20035;-68
2021/05/12 06:04:02;;;;;;;9.80;4.55;;;;;;;5.86;86.50;99967.94;4959551;28;20042;-68
2021/05/12 06:06:27;;;;;;;11.73;3.85;;;;;;;5.89;86.16;99973.09;4944914;28;20558;-68
2021/05/12 06:08:54;;;;;;;11.93;4.38;;;;;;;5.96;85.74;99969.53;4939076;28;20383;-68
2021/05/12 06:11:20;;;;;;;8.93;4.03;;;;;;;6.09;85.29;99981.44;4945763;28;20039;-68
2021/05/12 06:13:47;;;;;;;13.30;4.28;;;;;;;6.25;84.83;99982.03;4943727;28;20529;-68
2021/05/12 06:16:12;;;;;;;12.45;4.03;;;;;;;6.35;84.74;99972.38;4953273;28;20050;-68
2021/05/12 06:18:39;;;;;;;13.27;4.57;;;;;;;6.59;83.88;99971.94;4933183;28;20098;-68
2021/05/12 06:21:05;;;;;;;10.77;3.85;;;;;;;6.68;84.17;99952.72;4932949;28;20029;-68
2021/05/12 06:23:30;;;;;;;15.75;3.88;;;;;;;7.08;83.13;99970.13;4937057;28;20395;-68
2021/05/12 06:25:56;;;;;;;8.32;3.85;;;;;;;7.35;82.78;99974.78;4942637;28;20052;-68
2021/05/12 06:28:22;;;;;;;10.38;3.83;;;;;;;7.52;82.02;99966.59;4937699;28;20050;-68
2021/05/12 06:30:50;;;;;;;10.13;3.30;;;;;;;7.68;81.65;99975.75;4946904;28;20543;-68
2021/05/12 06:33:17;;;;;;;7.43;3.47;;;;;;;7.65;82.72;99978.41;4936091;28;20086;-68
2021/05/12 06:35:43;;;;;;;10.30;3.10;;;;;;;7.78;82.13;99960.81;4921627;29;20114;-68
2021/05/12 06:38:08;;;;;;;9.43;2.95;;;;;;;8.01;81.45;99970.69;4937050;28;20035;-68
2021/05/12 06:40:36;;;;;;;9.93;3.20;;;;;;;8.18;81.21;99972.88;4952765;28;20023;-68
2021/05/12 06:43:02;;;;;;;8.40;2.67;;;;;;;8.31;81.17;99974.25;4949995;28;20439;-67
2021/05/12 06:45:27;;;;;;;7.68;2.67;;;;;;;8.52;79.86;99968.56;4951187;28;20091;-67
2021/05/12 06:47:56;;;;;;;6.97;2.55;;;;;;;8.68;79.92;99975.97;4936206;28;20143;-68
2021/05/12 06:50:23;;;;;;;9.07;2.53;;;;;;;8.78;79.77;99970.47;4951349;28;20027;-68
2021/05/12 06:52:56;;;;;;;7.53;2.20;;;;;;;8.97;78.86;99975.16;4953342;28;20055;-68
2021/05/12 06:55:22;;;;;;;6.55;2.17;;;;;;;9.18;78.71;99971.97;4944433;28;20031;-68
2021/05/12 06:57:48;;;;;;;5.95;2.00;;;;;;;9.35;77.82;99971.47;4946316;28;20063;-69
2021/05/12 07:00:14;;;;;;;5.50;1.60;;;;;;;9.40;76.85;99974.81;4946768;28;20137;-69
2021/05/12 07:02:40;;;;;;;4.82;1.17;;;;;;;9.25;76.68;99959.63;4950970;28;20035;-68
2021/05/12 07:05:06;;;;;;;6.63;1.45;;;;;;;9.36;76.08;99979.25;4938520;28;20062;-68
2021/05/12 07:07:31;;;;;;;7.03;1.58;;;;;;;9.57;74.93;99977.75;4942614;28;20027;-69
2021/05/12 07:09:57;;;;;;;4.75;1.40;;;;;;;9.86;74.37;99978.63;4940545;28;20053;-68
2021/05/12 07:12:23;;;;;;;4.47;1.30;;;;;;;9.95;73.64;99980.94;4946260;28;20038;-68
2021/05/12 07:14:48;;;;;;;7.95;2.10;;;;;;;9.76;73.62;99977.19;4957542;28;20137;-69
2021/05/12 07:17:14;;;;;;;8.20;1.38;;;;;;;9.55;73.88;99979.56;4948116;28;20109;-68
2021/05/12 07:19:39;;;;;;;7.28;1.20;;;;;;;9.73;73.55;99992.91;4943689;28;20034;-69
2021/05/12 07:22:04;;;;;;;4.68;1.15;;;;;;;9.77;72.15;99984.97;4941383;28;20611;-68
2021/05/12 07:24:30;;;;;;;6.10;1.10;;;;;;;10.02;71.31;99990.25;4953165;28;20027;-68
2021/05/12 07:26:56;;;;;;;4.03;1.20;;;;;;;10.17;71.04;99988.06;4954009;28;20027;-68
2021/05/12 07:29:21;;;;;;;4.35;1.10;;;;;;;10.40;69.55;99977.78;4942820;28;20035;-69
2021/05/12 07:31:47;;;;;;;4.60;1.00;;;;;;;10.45;71.00;99978.47;4925564;28;20023;-69
2021/05/12 07:34:12;;;;;;;3.38;1.00;;;;;;;10.49;70.56;99980.09;4957514;28;20023;-68
2021/05/12 07:36:39;;;;;;;4.47;0.80;;;;;;;10.34;69.14;99975.34;4943118;28;20110;-68
2021/05/12 07:39:07;;;;;;;5.00;1.23;;;;;;;10.18;71.16;99979.34;4947906;28;20042;-68
2021/05/12 07:41:32;;;;;;;2.75;1.10;;;;;;;10.29;71.42;99982.47;4961248;28;20031;-68
2021/05/12 07:43:58;;;;;;;3.92;0.88;;;;;;;10.11;71.52;99984.75;4926767;29;20031;-68
2021/05/12 07:46:23;;;;;;;3.72;0.88;;;;;;;10.18;70.08;99989.78;4956311;28;20023;-68
2021/05/12 07:48:49;;;;;;;2.78;0.70;;;;;;;10.28;69.72;99980.78;4942824;28;20039;-68
2021/05/12 07:51:14;;;;;;;4.82;1.30;;;;;;;10.30;68.99;99999.88;4938700;28;20071;-68
2021/05/12 07:53:40;;;;;;;2.15;0.50;;;;;;;10.23;67.59;99987.88;4939677;28;20131;-68
2021/05/12 07:56:05;;;;;;;1.85;0.70;;;;;;;10.27;66.61;99994.72;4958597;28;20035;-68
2021/05/12 07:58:31;;;;;;;3.13;0.50;;;;;;;10.36;66.80;99994.44;4947064;28;20130;-68
2021/05/12 08:01:03;;;;;;;5.03;0.63;;;;;;;10.48;67.78;99999.22;4945786;28;20043;-69
2021/05/12 08:03:29;;;;;;;1.17;0.43;;;;;;;10.67;66.28;99999.47;4941874;28;20067;-69
2021/05/12 08:05:54;;;;;;;0.98;0.40;;;;;;;10.75;64.85;99994.00;4933729;28;20117;-69
2021/05/12 08:08:20;;;;;;;2.60;0.73;;;;;;;10.68;62.78;99995.94;4937216;28;20158;-69
2021/05/12 08:10:45;;;;;;;4.93;0.57;;;;;;;10.61;64.77;99999.69;4942085;28;20035;-68
2021/05/12 08:13:11;;;;;;;0.25;0.20;;;;;;;10.65;63.51;100001.28;4941024;28;20027;-69
2021/05/12 08:15:36;;;;;;;1.55;0.52;;;;;;;10.64;65.03;100010.00;4935284;29;20050;-69
2021/05/12 08:18:02;;;;;;;3.85;0.60;;;;;;;10.59;64.81;100009.31;4944284;28;20061;-68
2021/05/12 08:20:27;;;;;;;2.45;0.30;;;;;;;10.60;64.93;100004.06;4936921;28;20061;-69
2021/05/12 08:22:54;;;;;;;3.42;0.60;;;;;;;10.70;64.09;100008.97;4960982;28;20035;-69
2021/05/12 08:25:20;;;;;;;1.27;0.50;;;;;;;10.78;64.20;100004.31;4935483;28;20031;-68
2021/05/12 08:27:46;;;;;;;3.65;0.63;;;;;;;10.93;63.81;100005.53;4934378;28;20035;-68
2021/05/12 08:30:12;;;;;;;3.08;0.57;;;;;;;11.02;62.40;100008.69;4951061;28;20646;-68
2021/05/12 08:32:37;;;;;;;1.30;0.50;;;;;;;11.42;61.80;100009.84;4924740;29;20045;-68
2021/05/12 08:35:03;;;;;;;2.03;0.40;;;;;;;11.77;60.89;100005.06;4943969;28;20121;-68
2021/05/12 08:37:29;;;;;;;0.73;0.50;;;;;;;12.02;58.24;100008.44;4943888;28;20058;-69
2021/05/12 08:39:55;;;;;;;2.97;0.50;;;;;;;12.20;58.92;100015.56;4931602;28;20030;-68
2021/05/12 08:42:21;;;;;;;2.25;0.50;;;;;;;12.43;59.42;100016.41;4939185;28;20035;-69
2021/05/12 08:44:48;;;;;;;0.85;0.40;;;;;;;12.42;56.79;100026.03;4936350;29;20123;-68
2021/05/12 08:47:15;;;;;;;6.10;0.70;;;;;;;12.46;59.11;100021.50;4936472;28;20030;-69
2021/05/12 08:49:41;;;;;;;1.95;0.60;;;;;;;12.72;56.36;100010.78;4950187;28;20023;-68
2021/05/12 08:52:07;;;;;;;1.95;0.40;;;;;;;12.84;56.63;100011.19;4956089;28;20573;-68
2021/05/12 08:54:34;;;;;;;1.75;0.40;;;;;;;13.14;56.82;100022.94;4946065;28;20627;-68
2021/05/12 08:56:59;;;;;;;3.67;0.70;;;;;;;13.14;55.76;100009.84;4931760;28;20412;-68
2021/05/12 08:59:25;;;;;;;1.58;0.68;;;;;;;13.17;53.92;100016.69;4939427;28;20046;-69
2021/05/12 09:01:50;;;;;;;0.82;0.40;;;;;;;13.29;54.30;100023.22;4940221;28;20118;-68
2021/05/12 09:04:16;;;;;;;3.25;0.47;;;;;;;13.30;53.50;100019.69;4932330;28;20055;-68
2021/05/12 09:06:41;;;;;;;1.77;0.40;;;;;;;13.65;53.73;100021.56;4928513;28;20082;-68
2021/05/12 09:09:08;;;;;;;1.55;0.55;;;;;;;13.71;53.77;100016.00;4935912;28;20027;-72
2021/05/12 09:11:34;;;;;;;2.10;0.60;;;;;;;13.73;53.95;100029.91;4959733;28;20399;-69
2021/05/12 09:14:01;;;;;;;0.90;0.40;;;;;;;13.76;51.74;100008.78;4944828;28;20081;-69
2021/05/12 09:16:31;;;;;;;2.20;1.05;;;;;;;14.01;52.34;100018.13;4928726;28;20059;-69
2021/05/12 09:19:07;;;;;;;1.00;0.40;;;;;;;14.11;51.61;100024.63;4952260;28;20027;-69
2021/05/12 09:21:45;;;;;;;2.72;0.45;;;;;;;14.15;49.78;100023.56;4957784;28;20098;-68
2021/05/12 09:24:41;;;;;;;1.48;0.40;;;;;;;14.28;49.18;100040.41;4938007;28;20054;-68
2021/05/12 09:27:13;;;;;;;2.50;0.50;;;;;;;13.87;48.91;100020.53;4944081;28;20078;-69
2021/05/12 09:29:41;;;;;;;1.30;0.45;;;;;;;14.24;49.10;100031.00;4946565;28;20034;-68
2021/05/12 09:32:10;;;;;;;;;;;;;;;14.13;50.05;100032.44;4948515;28;20829;-68
2021/05/12 09:35:00;;;;;;;1.65;0.43;;;;;;;14.21;48.75;100020.63;4940612;28;20301;-68
2021/05/12 09:37:27;;;;;;;2.40;0.40;;;;;;;13.84;51.50;100033.78;4940190;28;20219;-68
2021/05/12 09:39:53;;;;;;;2.42;0.50;;;;;;;14.15;49.90;100041.09;4938183;29;20027;-68
2021/05/12 09:42:20;;;;;;;3.28;0.60;;;;;;;13.92;51.34;100034.31;4944958;28;20043;-68
2021/05/12 09:44:45;;;;;;;2.72;0.63;;;;;;;13.91;50.42;100040.47;4933237;28;20023;-68
2021/05/12 09:47:28;;;;;;;1.63;0.45;;;;;;;14.07;50.53;100041.44;4944157;29;20053;-68
2021/05/12 09:49:53;;;;;;;1.70;0.50;;;;;;;13.82;51.17;100036.50;4956411;28;20028;-69
2021/05/12 09:52:29;;;;;;;5.22;0.60;;;;;;;14.19;51.39;100046.13;4948151;28;20675;-69
2021/05/12 09:55:05;;;;;;;1.77;0.55;;;;;;;14.31;51.24;100043.84;4937804;29;20034;-69
2021/05/12 09:57:30;;;;;;;2.72;0.55;;;;;;;14.43;51.13;100037.97;4939314;28;20031;-69
2021/05/12 09:59:56;;;;;;;1.95;0.52;;;;;;;14.38;49.62;100042.59;4936773;28;20031;-69
2021/05/12 10:02:21;;;;;;;2.45;0.50;;;;;;;14.17;50.07;100037.47;4943085;28;20031;-69
2021/05/12 10:04:49;;;;;;;2.60;0.60;;;;;;;14.41;51.34;100043.31;4939190;28;20019;-69
2021/05/12 10:07:24;;;;;;;2.20;0.80;;;;;;;14.44;51.14;100040.50;4951994;28;20387;-69
2021/05/12 10:09:54;;;;;;;3.60;0.80;;;;;;;14.41;50.24;100040.69;4954866;28;20050;-70
2021/05/12 10:12:24;;;;;;;2.10;0.50;;;;;;;14.37;50.62;100040.91;4945866;28;20027;-69
2021/05/12 10:14:57;;;;;;;1.75;0.70;;;;;;;14.57;50.85;100045.22;4946100;28;20085;-68
2021/05/12 10:17:27;;;;;;;3.33;0.60;;;;;;;14.63;50.73;100048.38;4939898;28;20097;-69
2021/05/12 10:19:54;;;;;;;2.63;0.60;;;;;;;14.95;50.61;100043.25;4921993;28;20055;-69
2021/05/12 10:22:20;;;;;;;2.03;0.70;;;;;;;14.59;49.63;100035.47;4942271;28;20099;-68
2021/05/12 10:24:48;;;;;;;1.50;0.63;;;;;;;14.48;50.54;100041.25;4934217;28;20063;-69
2021/05/12 10:27:15;;;;;;;2.38;0.70;;;;;;;14.21;50.40;100046.91;4946618;28;20777;-69
2021/05/12 10:29:49;;;;;;;2.13;0.52;;;;;;;14.36;50.89;100050.56;4966092;28;20117;-69
2021/05/12 10:32:16;;;;;;;2.03;0.70;;;;;;;14.30;51.13;100050.00;4941332;28;20398;-69
2021/05/12 10:34:41;;;;;;;2.90;0.70;;;;;;;14.66;50.99;100032.47;4941080;29;20038;-68
2021/05/12 10:37:18;;;;;;;2.17;0.60;;;;;;;14.64;49.79;100044.81;4940407;28;20023;-69
2021/05/12 10:39:44;;;;;;;1.13;0.60;;;;;;;14.84;50.19;100041.19;4943830;28;20111;-69
2021/05/12 10:42:11;;;;;;;2.35;0.68;;;;;;;14.75;50.39;100046.91;4932481;28;20052;-68
2021/05/12 10:44:42;;;;;;;1.88;0.73;;;;;;;14.55;50.45;100047.91;4930675;28;20709;-69
2021/05/12 10:47:14;;;;;;;3.25;0.65;;;;;;;14.60;49.54;100058.19;4940411;28;20034;-69
2021/05/12 10:49:50;;;;;;;1.45;0.60;;;;;;;14.10;50.01;100057.06;4958550;28;20586;-68
2021/05/12 10:52:15;;;;;;;3.05;0.52;;;;;;;13.98;51.72;100049.75;4932400;28;20035;-68
2021/05/12 10:54:44;;;;;;;4.90;1.23;;;;;;;13.89;51.73;100056.31;4932151;28;20050;-68
2021/05/12 10:57:10;;;;;;;4.03;0.80;;;;;;;13.75;52.44;100043.81;4950093;28;20055;-68
2021/05/12 10:59:41;;;;;;;1.50;0.70;;;;;;;13.57;51.34;100063.00;4936844;28;20467;-68
2021/05/12 11:02:07;;;;;;;3.30;0.50;;;;;;;13.61;50.96;100061.97;4924656;28;20501;-69
2021/05/12 11:04:32;;;;;;;3.80;0.70;;;;;;;13.70;51.80;100053.69;4946118;28;20031;-68
2021/05/12 11:06:59;;;;;;;2.83;0.60;;;;;;;14.18;51.67;100057.53;4952968;28;20023;-69
2021/05/12 11:09:41;;;;;;;2.17;0.60;;;;;;;14.16;51.73;100063.81;4946501;28;20874;-69
2021/05/12 11:12:11;;;;;;;3.05;0.80;;;;;;;14.43;50.95;100061.59;4934761;28;20027;-69
2021/05/12 11:14:38;;;;;;;2.83;0.70;;;;;;;14.69;50.67;100061.19;4951341;28;20118;-69
2021/05/12 11:17:09;;;;;;;1.95;0.70;;;;;;;15.46;49.30;100060.75;4949655;28;20035;-69
2021/05/12 11:20:04;;;;;;;5.22;0.80;;;;;;;15.64;48.06;100058.94;4941078;28;20028;-69
2021/05/12 11:33:29;;;;;;;5.28;0.80;;;;;;;15.17;48.52;100064.91;4945712;28;20154;-69
2021/05/12 11:36:09;;;;;;;2.50;0.63;;;;;;;14.78;49.92;100063.38;4931657;28;20031;-69
2021/05/12 11:38:35;;;;;;;2.28;0.82;;;;;;;14.21;49.81;100062.66;4949362;28;20082;-68
2021/05/12 11:41:21;;;;;;;3.00;0.70;;;;;;;14.03;51.33;100071.38;4931669;29;20032;-69
2021/05/12 11:43:50;;;;;;;3.03;0.90;;;;;;;14.00;51.26;100068.94;4936164;28;20058;-69
2021/05/12 11:46:22;;;;;;;2.63;0.80;;;;;;;14.41;50.86;100069.56;4929795;29;21248;-68
2021/05/12 11:48:50;;;;;;;4.53;0.60;;;;;;;14.82;49.96;100069.34;4928861;28;20065;-69